Time;durP1;ratioP1;P1;durP2;ratioP2;P2;SDS_P1;SDS_P2;PMS_P1;PMS_P2;Temp;Humidity;BMP_temperature;BMP_pressure;BME280_temperature;BME280_humidity;BME280_pressure;Samples;Min_cycle;Max_cycle;Signal;HPM_P1;HPM_P2
2023/01/26 00:01:17;;;;;;;153.50;30.83;;;-0.20;99.90;;;;;;5136881;27;20122;-30
2023/01/26 00:03:43;;;;;;;130.97;27.27;;;-0.20;99.90;;;;;;5136922;27;20119;-30
2023/01/26 00:06:12;;;;;;;120.40;28.60;;;-0.20;99.90;;;;;;5127604;27;20055;-30
2023/01/26 00:08:40;;;;;;;136.00;29.27;;;-0.20;99.90;;;;;;5135870;27;20497;-31
2023/01/26 00:11:08;;;;;;;127.87;30.97;;;-0.10;99.90;;;;;;5118443;27;20043;-31
2023/01/26 00:13:34;;;;;;;137.37;29.67;;;0.00;99.90;;;;;;5136774;27;20062;-31
2023/01/26 00:16:02;;;;;;;124.27;26.97;;;-0.20;99.90;;;;;;5117816;27;20043;-31
2023/01/26 00:18:28;;;;;;;140.20;28.90;;;-0.10;99.90;;;;;;5118337;27;20062;-31
2023/01/26 00:21:01;;;;;;;131.17;29.27;;;0.00;99.90;;;;;;5136637;27;20047;-32
2023/01/26 00:23:28;;;;;;;131.00;29.05;;;-0.10;99.90;;;;;;5118464;27;20397;-32
2023/01/26 00:25:55;;;;;;;138.53;29.37;;;0.00;99.90;;;;;;5117782;27;20415;-33
2023/01/26 00:28:20;;;;;;;143.87;29.90;;;0.50;99.90;;;;;;5137034;27;20042;-31
2023/01/26 00:30:47;;;;;;;141.93;29.67;;;-0.20;99.90;;;;;;5118246;27;20039;-32
2023/01/26 00:33:13;;;;;;;151.73;31.17;;;0.00;99.90;;;;;;5136347;27;20075;-32
2023/01/26 00:35:43;;;;;;;130.77;30.27;;;-0.20;99.90;;;;;;5135375;27;20054;-32
2023/01/26 00:38:12;;;;;;;148.83;32.03;;;0.30;99.90;;;;;;5135299;27;20496;-32
2023/01/26 00:40:38;;;;;;;160.67;30.50;;;-0.10;99.90;;;;;;5136216;27;20100;-32
2023/01/26 00:43:04;;;;;;;146.30;32.23;;;0.00;99.90;;;;;;5137046;27;20039;-31
2023/01/26 00:45:29;;;;;;;149.37;31.10;;;-0.10;99.90;;;;;;5136713;27;20078;-31
2023/01/26 00:47:55;;;;;;;160.57;31.57;;;-0.10;99.90;;;;;;5133783;27;20039;-32
2023/01/26 00:50:21;;;;;;;152.80;30.90;;;0.00;99.90;;;;;;5136019;27;20134;-32
2023/01/26 00:52:47;;;;;;;156.70;33.77;;;-0.10;99.90;;;;;;5135877;27;20036;-33
2023/01/26 00:55:12;;;;;;;152.77;34.70;;;0.00;99.90;;;;;;5135978;27;20589;-32
2023/01/26 00:57:38;;;;;;;145.57;32.17;;;-0.10;99.90;;;;;;5134868;27;20074;-33
2023/01/26 01:00:05;;;;;;;141.43;31.40;;;0.00;99.90;;;;;;5136098;27;20400;-34
2023/01/26 01:02:31;;;;;;;136.63;33.23;;;-0.20;99.90;;;;;;5135810;27;20140;-33
2023/01/26 01:04:57;;;;;;;128.70;31.30;;;0.00;99.90;;;;;;5135822;27;20423;-33
2023/01/26 01:07:23;;;;;;;126.43;30.47;;;0.00;99.90;;;;;;5116548;27;20135;-32
2023/01/26 01:09:49;;;;;;;146.70;29.90;;;0.00;99.90;;;;;;5135741;27;20061;-32
2023/01/26 01:12:14;;;;;;;143.47;30.63;;;0.00;99.90;;;;;;5135598;27;20483;-32
2023/01/26 01:14:40;;;;;;;133.57;30.97;;;-0.10;99.90;;;;;;5135217;27;20212;-32
2023/01/26 01:17:06;;;;;;;150.43;32.63;;;0.00;99.90;;;;;;5136358;27;20075;-33
2023/01/26 01:19:32;;;;;;;147.27;31.67;;;0.00;99.90;;;;;;5133684;27;20046;-32
2023/01/26 01:21:58;;;;;;;128.67;29.27;;;0.10;99.90;;;;;;5135656;27;20047;-33
2023/01/26 01:24:24;;;;;;;143.80;30.43;;;0.00;99.90;;;;;;5135391;27;20047;-34
2023/01/26 01:26:49;;;;;;;146.17;31.10;;;-0.10;99.90;;;;;;5135361;27;20054;-33
2023/01/26 01:29:15;;;;;;;160.17;31.80;;;0.10;99.90;;;;;;5133664;27;20039;-33
2023/01/26 01:31:42;;;;;;;151.80;31.60;;;-0.10;99.90;;;;;;5135129;27;20400;-33
2023/01/26 01:34:08;;;;;;;157.23;30.77;;;0.00;99.90;;;;;;5136047;27;20051;-33
2023/01/26 01:36:33;;;;;;;144.90;30.13;;;-0.10;99.90;;;;;;5135760;27;20062;-33
2023/01/26 01:39:00;;;;;;;125.50;28.43;;;0.10;99.90;;;;;;5117082;27;20055;-33
2023/01/26 01:41:26;;;;;;;130.90;31.03;;;-0.10;99.90;;;;;;5134103;27;20046;-33
2023/01/26 01:44:11;;;;;;;130.17;29.13;;;0.10;99.90;;;;;;5135069;27;20043;-33
2023/01/26 01:46:38;;;;;;;182.10;32.10;;;0.00;99.90;;;;;;5117807;27;20058;-32
2023/01/26 01:49:09;;;;;;;132.03;28.70;;;0.30;99.90;;;;;;5134992;27;20065;-34
2023/01/26 01:51:44;;;;;;;154.90;30.03;;;0.20;99.90;;;;;;5134145;27;20097;-33
2023/01/26 01:54:20;;;;;;;156.77;31.37;;;0.20;99.90;;;;;;5135519;27;20039;-32
2023/01/26 01:56:52;;;;;;;137.30;29.57;;;0.20;99.90;;;;;;5134639;27;20104;-33
2023/01/26 01:59:20;;;;;;;166.97;32.23;;;0.10;99.90;;;;;;5134556;27;20093;-33
2023/01/26 02:01:50;;;;;;;139.50;28.60;;;0.10;99.90;;;;;;5133875;27;20047;-33
2023/01/26 02:04:17;;;;;;;139.07;30.33;;;0.10;99.90;;;;;;5135358;27;20053;-33
2023/01/26 02:06:48;;;;;;;162.90;31.13;;;0.50;99.90;;;;;;5134703;27;20046;-33
2023/01/26 02:12:04;;;;;;;153.40;31.80;;;0.10;99.90;;;;;;5101871;27;20489;-33
2023/01/26 02:14:32;;;;;;;190.33;33.37;;;0.30;99.90;;;;;;5135462;28;20100;-33
2023/01/26 02:16:58;;;;;;;168.30;31.47;;;0.10;99.90;;;;;;5134280;28;20492;-33
2023/01/26 02:19:41;;;;;;;144.57;29.23;;;0.60;99.90;;;;;;5117071;28;20072;-33
2023/01/26 02:22:21;;;;;;;167.48;30.45;;;0.20;99.90;;;;;;5134075;28;20423;-34
2023/01/26 02:24:47;;;;;;;164.50;32.00;;;0.10;99.90;;;;;;5134625;28;20045;-34
2023/01/26 02:27:13;;;;;;;129.37;29.60;;;0.40;99.90;;;;;;5116194;28;20069;-33
2023/01/26 02:29:39;;;;;;;153.90;30.57;;;0.50;99.90;;;;;;5134477;28;20039;-33
2023/01/26 02:32:04;;;;;;;147.70;29.67;;;0.10;99.90;;;;;;5133313;28;20089;-34
2023/01/26 02:34:30;;;;;;;176.13;32.33;;;0.30;99.90;;;;;;5117249;28;20047;-34
2023/01/26 02:37:00;;;;;;;168.70;31.03;;;0.10;99.90;;;;;;5116825;28;20051;-32
2023/01/26 02:39:39;;;;;;;173.53;32.67;;;0.20;99.90;;;;;;5099403;28;20138;-33
2023/01/26 02:44:50;;;;;;;144.53;30.90;;;0.30;99.90;;;;;;5133774;28;20051;-32
2023/01/26 02:47:18;;;;;;;168.20;35.07;;;0.50;99.90;;;;;;5116276;28;20442;-32
2023/01/26 02:49:46;;;;;;;214.07;35.37;;;0.20;99.90;;;;;;5134325;28;20125;-33
2023/01/26 02:52:14;;;;;;;181.40;34.47;;;0.30;99.90;;;;;;5134215;28;20043;-32
2023/01/26 02:57:25;;;;;;;213.07;37.00;;;0.30;99.90;;;;;;5134165;28;20055;-33
2023/01/26 02:59:51;;;;;;;212.73;35.67;;;0.30;99.90;;;;;;5134840;28;20086;-32
2023/01/26 03:02:17;;;;;;;232.37;37.23;;;1.00;99.90;;;;;;5134226;28;20075;-32
2023/01/26 03:04:43;;;;;;;227.73;35.20;;;0.30;99.90;;;;;;5133247;28;20088;-33
2023/01/26 03:07:09;;;;;;;199.33;34.00;;;0.70;99.90;;;;;;5115968;28;20054;-34
2023/01/26 03:09:35;;;;;;;201.53;36.03;;;0.60;99.90;;;;;;5135042;27;20054;-33
2023/01/26 03:12:01;;;;;;;197.83;34.87;;;0.80;99.90;;;;;;5137848;27;20047;-34
2023/01/26 03:14:27;;;;;;;211.87;34.80;;;0.90;99.90;;;;;;5101953;27;20053;-34
2023/01/26 03:16:54;;;;;;;213.97;35.67;;;0.40;99.90;;;;;;5137560;27;20043;-34
2023/01/26 03:27:41;;;;;;;208.37;35.73;;;0.50;99.90;;;;;;5138576;27;20381;-36
2023/01/26 03:30:07;;;;;;;233.05;36.03;;;0.50;99.90;;;;;;5103173;27;20090;-34
2023/01/26 03:32:33;;;;;;;211.40;34.33;;;0.90;99.90;;;;;;5137544;27;20392;-35
2023/01/26 03:34:58;;;;;;;217.27;37.87;;;0.60;99.90;;;;;;5136485;27;20088;-33
2023/01/26 03:37:24;;;;;;;238.63;37.70;;;0.60;99.90;;;;;;5137496;27;20051;-34
2023/01/26 03:56:23;;;;;;;226.77;38.87;;;1.00;99.90;;;;;;5136042;27;20047;-35
2023/01/26 03:58:51;;;;;;;244.50;38.57;;;1.20;99.90;;;;;;5101475;27;20059;-38
2023/01/26 04:01:19;;;;;;;244.60;37.47;;;0.80;99.90;;;;;;5137047;27;20062;-36
2023/01/26 04:09:16;;;;;;;273.30;39.20;;;0.90;99.90;;;;;;5136907;27;20130;-37
2023/01/26 04:11:42;;;;;;;254.50;38.47;;;1.50;99.90;;;;;;5101610;27;20388;-38
2023/01/26 04:22:25;;;;;;;297.63;38.80;;;1.10;99.90;;;;;;5135945;27;20400;-38
2023/01/26 04:24:50;;;;;;;281.23;41.07;;;1.40;99.90;;;;;;5118576;27;20047;-38
2023/01/26 04:27:16;;;;;;;297.33;39.17;;;1.30;99.90;;;;;;5135400;27;20197;-40
2023/01/26 04:29:42;;;;;;;283.67;36.33;;;1.30;99.90;;;;;;5136495;27;20043;-38
2023/01/26 04:32:08;;;;;;;261.83;37.53;;;1.50;99.90;;;;;;5118055;27;20050;-38
2023/01/26 04:34:33;;;;;;;286.37;38.63;;;1.60;99.90;;;;;;5137212;27;20043;-38
2023/01/26 04:36:59;;;;;;;261.93;35.30;;;1.40;99.90;;;;;;5101237;27;20043;-39
2023/01/26 04:39:25;;;;;;;292.63;39.95;;;1.70;99.90;;;;;;5116234;27;20110;-38
2023/01/26 04:41:50;;;;;;;304.33;39.17;;;1.50;99.90;;;;;;5118420;27;20205;-39
2023/01/26 04:44:16;;;;;;;348.33;43.78;;;1.70;99.90;;;;;;5136164;27;20130;-39
2023/01/26 04:46:42;;;;;;;266.47;35.63;;;1.60;99.90;;;;;;5136129;27;20043;-38
2023/01/26 04:49:07;;;;;;;246.07;36.65;;;1.60;99.90;;;;;;5136142;27;20047;-40
2023/01/26 04:51:33;;;;;;;205.65;34.47;;;1.80;99.90;;;;;;5134814;27;20118;-40
2023/01/26 04:53:59;;;;;;;285.73;39.10;;;1.70;99.90;;;;;;5136028;27;20043;-40
2023/01/26 04:56:31;;;;;;;242.07;36.20;;;1.80;99.90;;;;;;5135922;27;20122;-38
2023/01/26 04:58:59;;;;;;;220.80;33.95;;;2.20;99.90;;;;;;5135794;27;20054;-39
2023/01/26 05:01:25;;;;;;;269.38;37.47;;;2.20;99.90;;;;;;5083050;27;20093;-39
2023/01/26 05:03:51;;;;;;;295.23;37.90;;;2.00;99.90;;;;;;5135583;27;20485;-38
2023/01/26 05:06:17;;;;;;;230.13;34.28;;;1.80;99.90;;;;;;5135730;27;20047;-39
2023/01/26 05:08:43;;;;;;;289.60;37.65;;;2.30;99.90;;;;;;5118337;27;20072;-39
2023/01/26 05:11:09;;;;;;;225.50;34.80;;;2.20;99.90;;;;;;5099650;27;20393;-39
2023/01/26 05:13:34;;;;;;;247.95;36.05;;;2.20;99.90;;;;;;5134519;27;20092;-38
2023/01/26 05:16:01;;;;;;;285.92;36.92;;;2.30;99.90;;;;;;5117871;27;20051;-38
2023/01/26 05:18:28;;;;;;;286.13;36.95;;;1.90;99.90;;;;;;5135526;27;20039;-38
2023/01/26 05:20:54;;;;;;;261.70;37.08;;;2.20;99.90;;;;;;5135695;27;20069;-39
2023/01/26 05:23:19;;;;;;;282.35;32.72;;;1.90;99.90;;;;;;5135130;27;20039;-38
2023/01/26 05:25:45;;;;;;;279.58;36.42;;;2.10;99.90;;;;;;5135355;27;20055;-39
2023/01/26 05:28:11;;;;;;;343.92;38.42;;;2.20;99.90;;;;;;5117825;27;20469;-39
2023/01/26 05:30:37;;;;;;;290.30;37.15;;;1.90;99.90;;;;;;5135410;27;20043;-38
2023/01/26 05:33:05;;;;;;;277.35;37.90;;;2.10;99.90;;;;;;5098910;27;20047;-39
2023/01/26 05:35:31;;;;;;;248.00;35.00;;;2.10;99.90;;;;;;5100776;27;20047;-39
2023/01/26 05:37:56;;;;;;;225.32;34.55;;;1.90;99.90;;;;;;5117002;27;20145;-38
2023/01/26 05:40:23;;;;;;;270.05;37.45;;;2.50;99.90;;;;;;5135437;27;20069;-38
2023/01/26 05:42:49;;;;;;;174.30;32.30;;;2.30;99.90;;;;;;5134327;27;20447;-38
2023/01/26 05:45:15;;;;;;;224.50;34.85;;;2.40;99.90;;;;;;5135062;27;20100;-39
2023/01/26 05:47:43;;;;;;;197.40;31.58;;;2.10;99.90;;;;;;5135006;27;20045;-39
2023/01/26 05:50:10;;;;;;;248.90;34.35;;;2.20;99.90;;;;;;5134599;27;20378;-38
2023/01/26 05:52:36;;;;;;;259.27;34.65;;;2.10;99.90;;;;;;5133741;27;20075;-39
2023/01/26 05:55:02;;;;;;;247.07;33.03;;;2.40;99.90;;;;;;5117098;27;20086;-38
2023/01/26 05:57:28;;;;;;;268.10;35.25;;;2.50;99.90;;;;;;5134849;27;20047;-38
2023/01/26 05:59:53;;;;;;;246.25;33.60;;;2.10;99.90;;;;;;5082661;27;20062;-39
2023/01/26 06:02:20;;;;;;;191.80;29.15;;;2.10;99.90;;;;;;5116518;27;20131;-39
2023/01/26 06:04:46;;;;;;;174.63;30.20;;;2.30;99.90;;;;;;5133647;27;20046;-39
2023/01/26 06:07:14;;;;;;;188.13;31.00;;;2.40;99.90;;;;;;5134711;27;20047;-39
2023/01/26 06:09:40;;;;;;;164.35;29.90;;;2.40;99.90;;;;;;5134704;27;20047;-40
2023/01/26 06:12:17;;;;;;;222.07;31.40;;;2.30;99.90;;;;;;5135490;27;20425;-40
2023/01/26 06:14:43;;;;;;;179.82;27.83;;;2.10;99.90;;;;;;5133581;28;20043;-40
2023/01/26 06:17:09;;;;;;;254.65;31.10;;;2.00;99.90;;;;;;5116547;28;20054;-39
2023/01/26 06:19:35;;;;;;;233.60;28.23;;;2.00;99.90;;;;;;5116090;28;20512;-40
2023/01/26 06:22:01;;;;;;;208.38;26.55;;;2.20;99.90;;;;;;5116800;28;20093;-38
2023/01/26 06:24:26;;;;;;;222.13;27.20;;;2.20;99.90;;;;;;5133456;28;20071;-39
2023/01/26 06:26:52;;;;;;;304.33;25.95;;;2.00;99.90;;;;;;5134571;28;20047;-39
2023/01/26 06:29:18;;;;;;;220.48;21.67;;;2.30;99.90;;;;;;5116308;28;20047;-40
2023/01/26 06:31:44;;;;;;;173.30;19.13;;;2.50;99.90;;;;;;5133214;28;20039;-39
2023/01/26 06:34:10;;;;;;;103.20;13.95;;;2.20;99.90;;;;;;5134456;28;20047;-39
2023/01/26 06:36:36;;;;;;;77.53;11.90;;;2.40;99.90;;;;;;5133432;28;20087;-39
2023/01/26 06:39:01;;;;;;;100.53;10.10;;;2.30;99.90;;;;;;5134311;28;20044;-40
2023/01/26 06:41:27;;;;;;;75.20;8.63;;;2.30;99.90;;;;;;5134300;28;20095;-40
2023/01/26 06:43:53;;;;;;;57.95;7.53;;;2.20;99.90;;;;;;5128558;28;20043;-41
2023/01/26 06:46:19;;;;;;;59.80;5.88;;;2.40;99.90;;;;;;5138702;27;20035;-40
2023/01/26 06:48:49;;;;;;;55.47;4.80;;;2.20;99.90;;;;;;5136778;27;20054;-41
2023/01/26 06:51:15;;;;;;;61.78;6.40;;;2.00;99.90;;;;;;5105778;27;20040;-41
2023/01/26 06:53:56;;;;;;;73.15;6.60;;;2.00;99.90;;;;;;5134223;27;20058;-40
2023/01/26 06:56:27;;;;;;;47.33;6.45;;;2.20;99.90;;;;;;5135977;27;20054;-41
2023/01/26 06:58:53;;;;;;;66.78;6.10;;;2.10;99.90;;;;;;5136677;27;20063;-39
2023/01/26 07:01:22;;;;;;;47.78;5.47;;;2.20;99.90;;;;;;5120007;27;20397;-41
2023/01/26 07:03:49;;;;;;;56.00;5.38;;;2.20;99.90;;;;;;5138098;27;20085;-40
2023/01/26 07:06:15;;;;;;;61.92;5.72;;;1.90;99.90;;;;;;5135484;27;20043;-41
2023/01/26 07:08:41;;;;;;;55.60;6.10;;;1.80;99.90;;;;;;5137912;27;20050;-41
2023/01/26 07:11:07;;;;;;;62.03;7.07;;;2.00;99.90;;;;;;5137563;27;20043;-41
2023/01/26 07:13:33;;;;;;;55.10;6.10;;;1.60;99.90;;;;;;5117757;27;20134;-41
2023/01/26 07:16:07;;;;;;;63.65;5.72;;;1.70;99.90;;;;;;5138132;27;20118;-41
2023/01/26 07:18:33;;;;;;;58.03;5.50;;;1.70;99.90;;;;;;5138419;27;20057;-41
2023/01/26 07:21:17;;;;;;;51.47;5.25;;;1.70;99.90;;;;;;5120536;27;20047;-40
2023/01/26 07:23:44;;;;;;;50.17;6.32;;;1.70;99.90;;;;;;5137846;27;20049;-41
2023/01/26 07:26:13;;;;;;;42.13;5.55;;;2.10;99.90;;;;;;5137403;27;20401;-40
2023/01/26 07:28:41;;;;;;;68.03;5.65;;;1.80;99.90;;;;;;5137288;27;20416;-39
2023/01/26 07:31:07;;;;;;;56.90;6.35;;;2.10;99.90;;;;;;5119242;27;20043;-41
2023/01/26 07:33:34;;;;;;;40.95;4.53;;;2.20;99.90;;;;;;5118519;27;20127;-41
2023/01/26 07:36:00;;;;;;;53.58;4.80;;;2.60;99.90;;;;;;5138436;27;20043;-41
2023/01/26 07:38:27;;;;;;;56.45;5.70;;;2.50;99.90;;;;;;5119249;27;20043;-41
2023/01/26 07:40:53;;;;;;;39.08;4.57;;;3.00;99.90;;;;;;5135560;27;20070;-40
2023/01/26 07:43:19;;;;;;;51.20;5.53;;;3.00;99.90;;;;;;5115682;27;20520;-41
2023/01/26 07:45:50;;;;;;;50.40;5.57;;;3.00;99.90;;;;;;5136466;27;20043;-40
2023/01/26 07:48:17;;;;;;;43.80;5.32;;;3.20;99.90;;;;;;5136888;27;20378;-41
2023/01/26 07:50:44;;;;;;;61.10;5.57;;;3.20;99.90;;;;;;5137831;27;20473;-40
2023/01/26 07:53:13;;;;;;;57.00;5.03;;;3.10;99.90;;;;;;5118780;27;20502;-41
2023/01/26 07:55:39;;;;;;;55.42;6.35;;;2.90;99.90;;;;;;5119032;28;20043;-41
2023/01/26 07:58:05;;;;;;;51.40;6.60;;;3.20;99.90;;;;;;5119107;27;20460;-40
2023/01/26 08:00:31;;;;;;;56.35;8.65;;;2.70;99.90;;;;;;5136895;27;20066;-41
2023/01/26 08:02:56;;;;;;;49.28;5.32;;;2.60;99.90;;;;;;5133948;27;20031;-41
2023/01/26 08:05:22;;;;;;;53.50;5.57;;;2.70;99.90;;;;;;5134542;27;20485;-40
2023/01/26 08:07:48;;;;;;;53.72;5.55;;;2.40;99.90;;;;;;5136847;27;20054;-40
2023/01/26 08:10:14;;;;;;;49.10;5.03;;;2.60;99.90;;;;;;5137173;27;20046;-40
2023/01/26 08:12:40;;;;;;;63.47;6.82;;;2.70;99.90;;;;;;5136509;27;20385;-40
2023/01/26 08:15:06;;;;;;;52.60;5.93;;;2.80;99.90;;;;;;5136796;27;20058;-41
2023/01/26 08:17:32;;;;;;;38.75;5.00;;;2.90;99.90;;;;;;5137357;27;20088;-41
2023/01/26 08:19:58;;;;;;;50.05;6.32;;;2.90;99.90;;;;;;5117944;27;20054;-41
2023/01/26 08:22:25;;;;;;;51.28;5.75;;;3.30;99.90;;;;;;5136669;27;20031;-41
2023/01/26 08:24:51;;;;;;;55.97;4.93;;;3.20;99.90;;;;;;5136959;27;20065;-41
2023/01/26 08:27:16;;;;;;;40.17;4.40;;;3.70;99.90;;;;;;5118444;27;20473;-41
2023/01/26 08:29:42;;;;;;;57.65;5.68;;;3.50;99.90;;;;;;5118416;27;20039;-41
2023/01/26 08:32:08;;;;;;;43.60;4.82;;;3.70;99.90;;;;;;5117928;27;20107;-41
2023/01/26 08:34:34;;;;;;;51.40;5.25;;;4.20;99.90;;;;;;5136730;27;20043;-41
2023/01/26 08:37:00;;;;;;;48.67;4.88;;;4.20;99.90;;;;;;5118319;27;20100;-41
2023/01/26 08:39:27;;;;;;;47.40;4.88;;;4.10;99.90;;;;;;5118172;27;20179;-41
2023/01/26 08:41:52;;;;;;;32.90;3.80;;;4.50;99.90;;;;;;5136350;27;20065;-41
2023/01/26 08:44:18;;;;;;;48.80;5.28;;;4.20;99.90;;;;;;5136282;27;20481;-41
2023/01/26 08:46:44;;;;;;;56.78;5.93;;;4.30;99.90;;;;;;5136146;27;20130;-41
2023/01/26 08:49:10;;;;;;;55.40;5.82;;;4.70;99.90;;;;;;5117840;27;20039;-41
2023/01/26 08:51:36;;;;;;;46.00;4.63;;;4.20;99.90;;;;;;5136022;27;20035;-41
2023/01/26 08:54:06;;;;;;;50.28;4.43;;;4.60;99.90;;;;;;5134994;27;20047;-42
2023/01/26 08:56:33;;;;;;;42.00;4.25;;;4.30;99.90;;;;;;5134376;27;20079;-41
2023/01/26 08:58:59;;;;;;;44.35;4.68;;;4.30;99.90;;;;;;5113987;28;20532;-42
2023/01/26 09:01:24;;;;;;;44.08;4.68;;;4.60;99.90;;;;;;5114642;28;20130;-42
2023/01/26 09:03:55;;;;;;;42.58;5.40;;;4.10;99.90;;;;;;5115142;28;20052;-41
2023/01/26 09:06:21;;;;;;;48.63;4.75;;;4.00;99.90;;;;;;5115853;28;20082;-42
2023/01/26 09:08:51;;;;;;;41.38;5.25;;;4.20;99.90;;;;;;5113573;28;20048;-42
2023/01/26 09:11:22;;;;;;;54.97;6.45;;;4.00;99.90;;;;;;5096938;28;20504;-41
2023/01/26 09:13:55;;;;;;;43.70;4.75;;;4.20;99.90;;;;;;5113271;28;20105;-41
2023/01/26 09:16:22;;;;;;;34.53;4.00;;;4.80;99.90;;;;;;5107131;27;20051;-41
2023/01/26 09:18:52;;;;;;;36.58;3.65;;;4.60;99.90;;;;;;5110131;27;20392;-42
2023/01/26 09:21:18;;;;;;;46.60;4.80;;;4.90;99.90;;;;;;5106839;27;20040;-42
2023/01/26 09:23:44;;;;;;;38.17;3.80;;;4.70;99.90;;;;;;5113716;28;20512;-42
2023/01/26 09:26:10;;;;;;;39.72;4.63;;;4.90;99.90;;;;;;5114898;28;20047;-42
2023/01/26 09:28:36;;;;;;;59.92;7.15;;;5.20;99.90;;;;;;5113838;28;20047;-42
2023/01/26 09:31:07;;;;;;;44.30;5.40;;;5.00;99.90;;;;;;5111795;27;20394;-42
2023/01/26 09:33:33;;;;;;;41.60;4.90;;;5.50;99.90;;;;;;5110441;27;20067;-42
2023/01/26 09:36:03;;;;;;;56.53;5.07;;;5.70;99.90;;;;;;5093878;28;20082;-42
2023/01/26 09:38:29;;;;;;;45.10;4.43;;;5.30;99.90;;;;;;5094173;28;20047;-42
2023/01/26 09:40:58;;;;;;;56.55;6.00;;;5.70;99.90;;;;;;5094245;28;20090;-43
2023/01/26 09:43:27;;;;;;;52.92;5.18;;;5.80;99.90;;;;;;5093923;28;20532;-42
2023/01/26 09:46:12;;;;;;;53.55;4.85;;;;;;;;;;5076046;28;20051;-42
2023/01/26 09:48:59;;;;;;;58.30;6.80;;;6.30;99.90;;;;;;5093116;28;20054;-41
2023/01/26 09:51:40;;;;;;;41.70;4.57;;;6.40;99.90;;;;;;5094886;28;20076;-42
2023/01/26 09:54:31;;;;;;;40.65;5.25;;;6.40;99.90;;;;;;5094662;28;20040;-42
2023/01/26 09:57:01;;;;;;;47.95;5.82;;;6.50;99.90;;;;;;5094940;28;20040;-42
2023/01/26 10:00:00;;;;;;;41.20;5.47;;;6.60;99.90;;;;;;5102595;28;20098;-42
2023/01/26 10:02:48;;;;;;;43.33;5.22;;;6.60;99.90;;;;;;5114352;28;20036;-42
2023/01/26 10:05:19;;;;;;;43.47;4.65;;;6.60;99.90;;;;;;5105479;28;20062;-42
2023/01/26 10:07:45;;;;;;;45.83;4.70;;;6.60;99.90;;;;;;5114657;28;20078;-42
2023/01/26 10:10:25;;;;;;;44.03;5.25;;;6.50;99.90;;;;;;5114280;28;20528;-42
2023/01/26 10:12:51;;;;;;;32.13;3.53;;;6.60;99.90;;;;;;5114395;28;20465;-42
2023/01/26 10:15:30;;;;;;;38.92;4.18;;;6.60;99.90;;;;;;5096017;28;20113;-42
2023/01/26 10:18:02;;;;;;;32.75;4.93;;;6.60;99.90;;;;;;5114157;28;20040;-42
2023/01/26 10:20:38;;;;;;;40.25;5.63;;;6.60;99.90;;;;;;5113328;28;20047;-41
2023/01/26 10:23:24;;;;;;;39.70;4.88;;;6.60;99.90;;;;;;5096673;28;20057;-42
2023/01/26 10:25:50;;;;;;;41.42;4.10;;;6.70;99.90;;;;;;5096453;28;20436;-42
2023/01/26 10:28:28;;;;;;;27.80;4.75;;;6.70;99.90;;;;;;5095991;28;20040;-42
2023/01/26 10:30:54;;;;;;;34.35;3.72;;;6.80;99.90;;;;;;5079137;28;20048;-42
2023/01/26 10:33:31;;;;;;;39.47;4.47;;;6.80;99.90;;;;;;5114126;28;20504;-42
2023/01/26 10:35:57;;;;;;;34.78;5.55;;;6.80;99.90;;;;;;5114003;28;20489;-41
2023/01/26 10:38:32;;;;;;;36.58;4.15;;;6.80;99.90;;;;;;5114488;28;20052;-42
2023/01/26 10:41:18;;;;;;;45.95;4.57;;;6.90;99.90;;;;;;5113937;28;20134;-42
2023/01/26 10:44:24;;;;;;;35.25;4.40;;;6.90;99.90;;;;;;5095838;28;20040;-42
2023/01/26 10:47:04;;;;;;;29.77;4.07;;;7.10;99.90;;;;;;5073475;28;20485;-42
2023/01/26 10:49:30;;;;;;;30.33;4.97;;;7.20;99.90;;;;;;5113912;28;20052;-42
2023/01/26 10:52:13;;;;;;;28.42;3.40;;;7.20;99.90;;;;;;5095788;28;20054;-41
2023/01/26 10:54:42;;;;;;;25.25;3.22;;;7.00;99.90;;;;;;5114702;28;20051;-42
2023/01/26 10:57:26;;;;;;;23.40;3.90;;;6.70;99.90;;;;;;5113827;28;20048;-41
2023/01/26 11:00:08;;;;;;;28.15;4.05;;;6.90;99.90;;;;;;5092393;28;20055;-41
2023/01/26 11:02:35;;;;;;;29.65;3.83;;;6.80;99.90;;;;;;5093003;28;20454;-40
2023/01/26 11:05:07;;;;;;;24.50;3.58;;;6.80;99.90;;;;;;5093366;28;20083;-41
2023/01/26 11:07:40;;;;;;;34.80;3.25;;;7.00;99.90;;;;;;5093025;28;20569;-41
2023/01/26 11:10:24;;;;;;;23.02;2.90;;;7.10;99.90;;;;;;5093238;28;20048;-40
2023/01/26 11:12:50;;;;;;;;;;;7.20;99.90;;;;;;5093573;28;20040;-40
2023/01/26 11:15:22;;;;;;;18.33;3.20;;;7.10;99.90;;;;;;5093222;28;19920;-39
2023/01/26 11:17:57;;;;;;;20.25;4.22;;;7.20;99.90;;;;;;5092135;28;20130;-38
2023/01/26 11:20:56;;;;;;;27.38;3.33;;;7.30;99.90;;;;;;5094048;28;20048;-37
2023/01/26 11:23:31;;;;;;;24.23;4.28;;;7.50;99.90;;;;;;5093150;28;20087;-37
2023/01/26 11:26:34;;;;;;;15.50;2.63;;;7.70;99.90;;;;;;5093141;28;20501;-35
2023/01/26 11:29:00;;;;;;;20.52;3.00;;;7.80;99.90;;;;;;5093116;28;20093;-34
2023/01/26 11:32:08;;;;;;;26.50;3.58;;;7.90;99.90;;;;;;5094940;28;20081;-35
2023/01/26 11:34:49;;;;;;;29.90;3.58;;;7.80;99.90;;;;;;5076888;28;20044;-33
2023/01/26 11:37:21;;;;;;;22.42;2.92;;;7.90;99.90;;;;;;5097548;28;20047;-33
2023/01/26 11:40:25;;;;;;;18.63;2.80;;;8.10;99.90;;;;;;5096673;28;20563;-33
2023/01/26 11:43:14;;;;;;;22.85;3.05;;;8.20;99.90;;;;;;5097202;28;20052;-33
2023/01/26 11:45:45;;;;;;;24.45;3.80;;;8.10;99.90;;;;;;5097702;28;20469;-33
2023/01/26 11:48:26;;;;;;;21.38;3.40;;;8.10;99.90;;;;;;5096479;28;20047;-34
2023/01/26 11:51:04;;;;;;;29.80;3.38;;;8.10;99.90;;;;;;5096758;28;20402;-34
2023/01/26 11:54:08;;;;;;;26.60;3.63;;;8.20;99.90;;;;;;5096362;28;20097;-33
2023/01/26 11:56:40;;;;;;;21.42;3.08;;;8.20;99.90;;;;;;5096109;28;20533;-33
2023/01/26 11:59:13;;;;;;;27.75;3.28;;;8.20;99.90;;;;;;5101748;28;20512;-33
2023/01/26 12:01:50;;;;;;;28.17;4.55;;;8.10;1.00;;;;;;5116665;28;20136;-32
2023/01/26 12:04:21;;;;;;;19.65;3.13;;;8.00;1.00;;;;;;5116565;28;20047;-33
2023/01/26 12:07:22;;;;;;;22.30;3.08;;;8.00;1.00;;;;;;5098343;28;20047;-33
2023/01/26 12:09:51;;;;;;;25.90;3.67;;;7.90;99.90;;;;;;5116718;28;20055;-32
2023/01/26 12:12:28;;;;;;;18.08;3.13;;;7.80;1.00;;;;;;5116270;28;20035;-33
2023/01/26 12:15:05;;;;;;;19.83;2.50;;;7.90;99.90;;;;;;5097804;28;20500;-32
2023/01/26 12:18:07;;;;;;;16.05;2.92;;;7.90;99.90;;;;;;5116692;28;20382;-32
2023/01/26 12:20:44;;;;;;;14.85;2.33;;;7.90;69.00;;;;;;5116182;28;20043;-33
2023/01/26 12:23:30;;;;;;;19.98;2.75;;;8.20;99.90;;;;;;5099045;28;20047;-33
2023/01/26 12:26:00;;;;;;;19.48;2.03;;;8.20;99.90;;;;;;5081112;28;20468;-33
2023/01/26 12:28:47;;;;;;;14.65;2.17;;;8.20;1.00;;;;;;5098779;28;20055;-33
2023/01/26 12:31:22;;;;;;;13.65;1.40;;;8.30;99.90;;;;;;5115855;28;20043;-32
2023/01/26 12:33:51;;;;;;;14.65;2.28;;;8.30;99.90;;;;;;5115856;28;20055;-33
2023/01/26 12:36:55;;;;;;;14.20;2.05;;;8.30;1.00;;;;;;5097597;28;20049;-32
2023/01/26 12:39:45;;;;;;;12.35;2.20;;;8.20;1.00;;;;;;5115736;28;20044;-32
2023/01/26 12:42:38;;;;;;;15.20;2.70;;;8.20;99.90;;;;;;5115199;28;20085;-33
2023/01/26 12:45:16;;;;;;;13.18;1.70;;;8.20;99.90;;;;;;5115706;28;20048;-32
2023/01/26 12:47:50;;;;;;;16.25;1.52;;;8.10;99.90;;;;;;5098316;28;20051;-33
2023/01/26 12:51:14;;;;;;;12.73;1.65;;;8.00;99.90;;;;;;5097430;28;20048;-32
2023/01/26 12:54:05;;;;;;;18.25;3.13;;;8.00;99.90;;;;;;5012800;28;20054;-32
2023/01/26 12:56:39;;;;;;;14.63;2.13;;;8.00;1.00;;;;;;4995230;28;20058;-32
2023/01/26 12:59:27;;;;;;;15.35;2.20;;;8.10;99.90;;;;;;5084168;28;20051;-32
2023/01/26 13:01:53;;;;;;;20.63;2.20;;;8.20;93.40;;;;;;5116254;28;20039;-32
2023/01/26 13:04:19;;;;;;;14.82;2.13;;;8.20;99.90;;;;;;5115303;28;20116;-31
2023/01/26 13:07:01;;;;;;;18.98;3.00;;;8.20;99.90;;;;;;5080430;28;20044;-33
2023/01/26 13:09:27;;;;;;;13.95;1.50;;;8.00;1.00;;;;;;5098123;28;20051;-31
2023/01/26 13:11:58;;;;;;;12.73;1.88;;;7.90;99.90;;;;;;5081105;28;20043;-32
2023/01/26 13:14:36;;;;;;;16.10;2.78;;;8.00;99.90;;;;;;5115178;28;20503;-32
2023/01/26 13:17:17;;;;;;;17.65;2.60;;;7.90;1.00;;;;;;5115429;28;20047;-31
2023/01/26 13:19:43;;;;;;;15.13;2.58;;;7.90;1.00;;;;;;5115023;28;20134;-32
2023/01/26 13:22:18;;;;;;;13.80;2.78;;;7.80;1.00;;;;;;5115545;28;20126;-32
2023/01/26 13:24:45;;;;;;;16.17;2.33;;;7.80;1.00;;;;;;5097456;28;20203;-32
2023/01/26 13:27:31;;;;;;;15.88;3.78;;;7.80;99.90;;;;;;5114910;28;20053;-32
2023/01/26 13:29:57;;;;;;;18.35;2.58;;;7.70;99.90;;;;;;5114859;28;20047;-31
2023/01/26 13:32:23;;;;;;;17.73;1.90;;;7.70;99.90;;;;;;5114568;28;20090;-32
2023/01/26 13:34:53;;;;;;;12.15;1.88;;;7.60;99.90;;;;;;5114805;28;20083;-32
2023/01/26 13:37:31;;;;;;;19.98;1.98;;;7.50;99.90;;;;;;5115289;28;20051;-31
2023/01/26 13:40:04;;;;;;;17.02;2.13;;;7.50;1.00;;;;;;5114724;28;20039;-32
2023/01/26 13:42:47;;;;;;;20.55;2.58;;;7.40;1.00;;;;;;5114568;28;20385;-31